Date,TemperatureHighF,TemperatureAvgF,TemperatureLowF,DewpointHighF,DewpointAvgF,DewpointLowF,HumidityHigh,HumidityAvg,HumidityLow,PressureMaxIn,PressureMinIn,WindSpeedMaxMPH,WindSpeedAvgMPH,GustSpeedMaxMPH,PrecipitationSumIn
2013-1-1,70.0,57.1,44.0,65.0,-72.0,-99.9,99,17,70,0.00,40.00,14,6,24,0.00
2013-1-2,70.0,54.2,41.0,60.0,-80.0,-99.9,99,12,71,0.00,40.00,8,5,18,0.00
2013-1-3,70.0,55.7,42.0,61.0,-78.0,-99.9,99,12,63,0.00,40.00,9,5,18,0.00
2013-1-4,69.0,58.6,41.0,63.0,-80.0,-99.9,99,11,80,0.00,40.00,27,19,54,0.00
2013-1-5,67.0,58.4,52.0,54.0,-80.1,-99.9,90,10,73,0.00,40.00,32,22,56,0.00
2013-1-6,70.0,60.5,53.0,55.0,-74.2,-99.9,83,13,60,0.00,40.00,27,22,48,0.00
2013-1-7,68.0,57.8,46.0,64.0,-80.2,-99.9,95,12,93,0.00,40.00,22,11,38,0.00
2013-1-8,71.0,56.7,42.0,58.0,-80.0,-99.9,98,10,63,0.00,40.00,18,7,41,0.00
2013-1-9,70.0,57.1,47.0,59.0,-80.7,-99.9,88,10,68,0.00,40.00,10,6,24,0.00
2013-1-10,69.0,56.4,42.0,57.0,-76.8,-99.9,99,13,69,0.00,40.00,12,7,33,0.00
2013-1-11,67.0,54.3,41.0,58.0,-73.9,-99.9,99,15,69,0.00,40.00,8,5,21,0.00
2013-1-12,69.0,55.1,44.0,54.0,-86.4,-99.9,99,9,97,0.00,40.00,8,4,19,0.00
2013-1-13,70.0,56.9,44.0,57.0,-72.6,-99.9,99,16,70,0.00,40.00,9,4,18,0.00
2013-1-14,73.0,59.2,47.0,60.0,-84.8,-99.9,96,8,63,0.00,40.00,9,5,20,0.00
2013-1-15,71.0,60.7,52.0,70.0,-71.1,-99.9,99,17,87,0.00,40.00,11,6,25,0.00
2013-1-16,70.0,58.0,46.0,65.0,-80.4,-99.9,98,12,91,0.00,40.00,11,6,23,0.00
2013-1-17,69.0,54.9,39.0,56.0,-74.1,-99.9,99,14,69,0.00,40.00,12,7,23,0.00
2013-1-18,69.0,54.0,35.0,56.0,-80.7,-99.9,96,10,67,0.00,40.00,8,4,18,0.00
2013-1-19,69.0,51.3,38.0,41.0,-84.2,-99.9,83,5,8,0.00,40.00,9,6,22,0.00
2013-1-20,68.0,52.8,37.0,27.0,-87.8,-99.9,41,2,3,0.00,40.00,8,5,17,0.00
2013-1-21,72.0,57.7,42.0,50.0,-74.8,-99.9,63,9,45,0.00,40.00,22,7,31,0.00
2013-1-22,68.0,59.6,43.0,37.0,-85.8,-99.9,65,4,7,0.00,40.00,24,8,43,0.00
2013-1-23,69.0,54.5,40.0,49.0,-80.9,-99.9,86,9,46,0.00,40.00,8,5,20,0.00
2013-1-24,65.0,51.7,38.0,58.0,-79.9,-99.9,98,12,85,0.00,40.00,7,4,19,0.00
2013-1-25,70.0,56.7,43.0,54.0,-71.5,-99.9,99,16,61,0.00,40.00,9,5,17,0.00
2013-1-26,67.0,53.2,40.0,46.0,-86.7,-99.9,96,6,46,0.00,40.00,7,5,19,0.00
2013-1-27,68.0,54.0,37.0,53.0,-79.6,-99.9,86,10,49,0.00,40.00,9,5,19,0.00
2013-1-28,67.0,54.2,40.0,57.0,-78.2,-99.9,99,14,88,0.00,40.00,8,5,17,0.00
2013-1-29,66.0,56.1,49.0,56.0,-78.2,-99.9,99,12,63,0.00,40.00,8,4,14,0.10
2013-1-30,63.0,57.9,54.0,58.0,-69.6,-99.9,99,16,37,0.00,40.00,6,4,13,0.30
2013-1-31,64.0,57.5,46.0,46.0,-51.6,-99.9,99,25,52,0.00,40.00,8,5,18,0.10
2013-2-1,70.0,47.5,67.0,47.0,-4.7,-99.9,48,24,23,0.00,40.00,9,8,24,0.00
2013-2-2,51.0,7.3,51.0,-99.9,-99.9,-99.9,0,0,100,0.00,40.00,7,3,0,0.00
2013-2-3,-200.0,0.0,200.0,-99.9,-99.9,-99.9,0,0,100,0.00,40.00,16,7,0,0.00
2013-2-4,76.0,25.3,57.0,-99.9,-99.9,-99.9,0,0,100,0.00,40.00,22,11,0,0.00
2013-2-5,59.0,33.4,54.0,50.0,-39.9,-99.9,85,31,71,0.00,40.00,7,6,0,0.00
2013-2-6,66.0,19.4,60.0,54.0,-90.4,-99.9,77,5,77,0.00,40.00,9,6,0,0.00
2013-2-7,63.0,14.9,62.0,-99.9,-99.9,-99.9,0,0,100,0.00,40.00,14,8,0,0.00
2013-2-8,67.0,12.4,4.0,-99.9,-99.9,-99.9,0,0,100,0.00,40.00,7,5,0,0.00
2013-2-9,45.0,4.5,45.0,35.0,-86.4,-99.9,67,7,67,0.00,40.00,6,4,0,0.00
2013-2-10,-200.0,0.0,200.0,-99.9,-99.9,-99.9,0,0,100,0.00,40.00,9,5,0,0.00
2013-2-11,63.0,34.0,44.0,50.0,-8.7,-99.9,94,48,57,0.00,40.00,8,5,33,0.00
2013-2-12,69.0,51.6,40.0,47.0,39.6,27.0,95,67,29,0.00,40.00,11,4,21,0.00
2013-2-13,64.0,51.2,37.0,48.0,35.1,16.0,91,57,27,0.00,40.00,9,5,20,0.00
2013-2-14,65.0,51.5,36.0,50.0,41.5,25.0,97,71,47,0.00,40.00,9,5,22,0.00
2013-2-15,73.0,54.1,38.0,51.0,39.4,22.0,99,63,20,0.00,40.00,12,7,39,0.00
2013-2-16,69.0,57.2,46.0,47.0,42.3,34.0,79,58,39,0.00,40.00,21,12,37,0.00
2013-2-17,65.0,56.8,52.0,46.0,39.0,23.0,73,52,31,0.00,40.00,27,20,48,0.00
2013-2-18,65.0,56.0,47.0,47.0,42.3,33.0,80,61,41,0.00,40.00,25,18,49,0.00
2013-2-19,70.0,56.8,46.0,50.0,42.1,29.0,93,62,22,0.00,40.00,16,7,31,0.00
2013-2-20,66.0,53.2,43.0,53.0,40.3,25.0,94,64,31,0.00,40.00,18,8,30,0.42
2013-2-21,66.0,54.0,43.0,55.0,45.7,37.0,97,75,43,0.00,40.00,19,8,35,0.41
2013-2-22,61.0,54.9,50.0,50.0,46.0,41.0,89,72,55,0.00,40.00,18,11,35,0.05
2013-2-23,66.0,51.5,43.0,53.0,46.6,39.0,99,85,49,0.00,40.00,10,5,30,0.64
2013-2-24,65.0,54.0,45.0,52.0,46.8,42.0,99,78,47,0.00,40.00,14,7,29,0.01
2013-2-25,69.0,54.6,42.0,53.0,44.7,35.0,91,72,39,0.00,40.00,15,8,27,0.00
2013-2-26,72.0,55.4,45.0,51.0,42.4,29.0,95,66,23,0.00,40.00,14,8,32,0.00
2013-2-27,66.0,53.0,44.0,52.0,46.1,42.0,99,80,45,0.00,40.00,10,6,20,0.00
2013-2-28,65.0,52.3,42.0,52.0,43.4,33.0,97,73,44,0.00,40.00,9,5,21,0.00
2013-3-1,66.0,52.5,41.0,50.0,44.7,39.0,99,78,49,0.00,40.00,10,6,23,0.00
2013-3-2,67.0,53.8,44.0,50.0,46.1,41.0,99,78,44,0.00,40.00,13,7,29,0.00
2013-3-3,73.0,52.6,37.0,52.0,36.4,-20.0,99,66,2,0.00,40.00,16,7,33,0.00
2013-3-4,66.0,53.6,38.0,47.0,33.1,17.0,78,49,15,0.00,40.00,10,7,21,0.00
2013-3-5,66.0,52.8,38.0,51.0,41.0,28.0,97,66,36,0.00,40.00,9,5,22,0.00
2013-3-6,66.0,52.2,38.0,54.0,45.4,31.0,100,81,42,0.00,40.00,9,4,21,0.02
2013-3-7,63.0,51.5,36.0,55.0,47.1,34.0,100,87,55,0.00,40.00,8,4,19,0.04
2013-3-8,65.0,53.5,39.0,52.0,47.6,36.0,100,82,54,0.00,40.00,8,5,17,0.05
2013-3-9,66.0,54.3,38.0,51.0,44.2,36.0,96,71,48,0.00,40.00,18,9,33,0.01
2013-3-10,65.0,56.8,47.0,49.0,44.5,36.0,95,65,43,0.00,40.00,17,10,31,0.00
2013-3-11,68.0,54.1,41.0,56.0,44.2,32.0,97,72,36,0.00,40.00,11,7,21,0.03
2013-3-12,64.0,56.0,50.0,54.0,50.3,41.0,98,83,57,0.00,40.00,11,5,22,0.03
2013-3-13,68.0,54.9,44.0,54.0,45.6,37.0,98,73,40,0.00,40.00,10,5,20,0.00
2013-3-14,68.0,54.1,42.0,54.0,47.6,36.0,97,81,31,0.00,40.00,10,5,20,0.00
2013-3-15,64.0,56.2,50.0,56.0,50.3,44.0,97,81,68,0.00,40.00,12,9,22,0.00
2013-3-16,64.0,55.1,50.0,53.0,45.2,25.0,99,72,29,0.00,40.00,12,7,22,0.00
2013-3-17,60.0,53.6,45.0,51.0,47.0,41.0,99,79,55,0.00,40.00,15,8,26,0.00
2013-3-18,68.0,54.3,39.0,47.0,43.7,33.0,95,70,44,0.00,40.00,12,6,28,0.00
2013-3-19,68.0,53.2,37.0,53.0,45.0,36.0,96,76,45,0.00,40.00,12,7,27,0.00
2013-3-20,66.0,53.9,42.0,56.0,48.1,38.0,99,83,51,0.00,40.00,6,4,15,0.00
2013-3-21,68.0,55.9,45.0,55.0,48.0,39.0,100,77,49,0.00,40.00,9,5,20,0.00
2013-3-22,64.0,55.0,45.0,56.0,48.3,38.0,98,80,40,0.00,40.00,7,5,16,0.00
2013-3-23,64.0,56.0,49.0,57.0,51.8,46.0,98,87,65,0.00,40.00,7,4,15,0.00
2013-3-24,64.0,56.0,50.0,56.0,51.8,48.0,99,86,65,0.00,40.00,10,4,18,0.00
2013-3-25,69.0,57.0,45.0,55.0,49.7,43.0,98,79,46,0.00,40.00,8,4,19,0.00
2013-3-26,69.0,56.9,45.0,54.0,49.3,44.0,97,78,51,0.00,40.00,9,5,21,0.00
2013-3-27,68.0,56.4,46.0,53.0,46.2,39.0,98,73,42,0.00,40.00,9,5,23,0.00
2013-3-28,69.0,59.9,46.0,51.0,46.3,40.0,90,63,44,0.00,40.00,10,6,23,0.00
2013-3-29,66.0,54.6,43.0,56.0,47.7,38.0,100,80,44,0.00,40.00,9,5,20,0.37
2013-3-30,60.0,52.2,44.0,54.0,50.1,43.0,99,93,72,0.00,40.00,9,3,16,0.41
2013-3-31,67.0,54.1,43.0,52.0,47.1,18.0,97,79,46,0.00,40.00,9,6,21,0.01
2013-4-1,66.0,49.8,33.0,47.0,34.3,9.0,100,62,13,0.00,40.00,12,6,24,0.00
2013-4-2,63.0,50.4,35.0,51.0,42.8,32.0,98,78,48,0.00,40.00,11,5,21,0.00
2013-4-3,65.0,51.0,38.0,50.0,43.9,32.0,99,79,48,0.00,40.00,9,5,20,0.00
2013-4-4,68.0,53.4,41.0,51.0,45.4,40.0,97,77,48,0.00,40.00,9,5,23,0.00
2013-4-5,68.0,55.3,43.0,56.0,47.5,37.0,99,77,47,0.00,40.00,9,5,21,0.00
2013-4-6,72.0,58.5,44.0,54.0,48.0,39.0,99,70,44,0.00,40.00,9,5,20,0.00
2013-4-7,73.0,61.0,48.0,57.0,45.8,30.0,98,62,20,0.00,40.00,12,8,24,0.00
2013-4-8,68.0,56.4,39.0,56.0,46.6,31.0,98,73,34,0.00,40.00,10,5,21,0.00
2013-4-9,68.0,57.1,46.0,57.0,51.4,44.0,100,84,42,0.00,40.00,9,4,20,0.03
2013-4-10,71.0,59.8,43.0,55.0,46.5,33.0,100,65,26,0.00,40.00,8,5,19,0.03
2013-4-11,78.0,60.1,42.0,55.0,46.7,16.0,99,69,10,0.00,40.00,10,6,20,0.00
2013-4-12,70.0,57.5,41.0,56.0,50.1,40.0,100,79,46,0.00,40.00,9,5,21,0.00
2013-4-13,78.0,61.3,53.0,55.0,48.0,30.0,98,68,17,0.00,40.00,10,5,24,0.00
2013-4-14,71.0,60.1,46.0,57.0,47.8,33.0,98,67,25,0.00,40.00,10,5,21,0.00
2013-4-15,73.0,59.1,44.0,57.0,46.8,30.0,97,68,22,0.00,40.00,9,5,19,0.00
2013-4-16,72.0,59.7,47.0,56.0,47.8,32.0,97,68,38,0.00,40.00,9,5,24,0.00
2013-4-17,68.0,57.7,47.0,59.0,46.7,25.0,99,69,29,0.00,40.00,9,6,20,0.02
2013-4-18,69.0,58.5,48.0,56.0,52.2,47.0,100,81,55,0.00,40.00,8,6,22,0.02
2013-4-19,69.0,56.4,45.0,59.0,49.0,39.0,99,80,35,0.00,40.00,9,5,18,1.70
2013-4-20,68.0,57.4,46.0,57.0,50.9,45.0,100,81,44,0.00,40.00,8,4,19,0.03
2013-4-21,69.0,56.0,43.0,55.0,46.1,32.0,99,72,41,0.00,40.00,10,5,20,0.00
2013-4-22,70.0,58.7,48.0,56.0,46.0,31.0,99,65,39,0.00,40.00,10,6,24,0.00
2013-4-23,73.0,58.4,43.0,57.0,50.5,40.0,100,78,42,0.00,40.00,11,5,22,0.00
2013-4-24,74.0,59.8,46.0,54.0,45.8,30.0,99,65,23,0.00,40.00,9,5,21,0.00
2013-4-25,72.0,57.5,44.0,56.0,49.4,42.0,100,78,36,0.00,40.00,12,6,26,0.00
2013-4-26,68.0,56.5,43.0,55.0,50.1,41.0,100,81,55,0.00,40.00,11,6,22,0.00
2013-4-27,69.0,56.5,43.0,56.0,50.0,42.0,100,81,44,0.00,40.00,9,5,21,0.00
2013-4-28,70.0,58.5,44.0,57.0,51.3,39.0,100,79,54,0.00,40.00,10,5,20,0.00
2013-4-29,69.0,58.1,45.0,56.0,52.2,45.0,99,83,57,0.00,40.00,10,5,19,0.00
2013-4-30,69.0,58.2,44.0,57.0,51.7,43.0,98,81,44,0.00,40.00,9,5,20,0.00
2013-5-1,70.0,56.2,44.0,59.0,50.7,43.0,100,84,46,0.00,40.00,9,5,20,0.00
2013-5-2,69.0,58.1,44.0,58.0,53.5,43.0,100,86,54,0.00,40.00,9,5,19,0.02
2013-5-3,67.0,55.9,45.0,57.0,53.0,43.0,100,91,69,0.00,40.00,8,4,15,0.02
2013-5-4,68.0,58.8,49.0,55.0,52.6,48.0,99,82,59,0.00,40.00,10,5,20,0.00
2013-5-5,68.0,57.7,50.0,58.0,53.3,49.0,100,86,63,0.00,40.00,9,4,17,0.00
2013-5-6,70.0,58.8,48.0,57.0,52.9,45.0,99,83,44,0.00,40.00,8,4,19,0.00
2013-5-7,71.0,59.8,47.0,60.0,53.5,45.0,98,82,52,0.00,40.00,9,5,18,0.00
2013-5-8,71.0,59.7,47.0,60.0,50.2,39.0,100,74,35,0.00,40.00,9,5,20,0.01
2013-5-9,74.0,61.4,55.0,61.0,57.0,52.0,100,87,58,0.00,40.00,12,6,23,0.01
2013-5-10,72.0,63.2,52.0,61.0,58.1,52.0,100,85,64,0.00,40.00,10,5,19,0.01
2013-5-11,72.0,62.8,50.0,59.0,56.2,49.0,97,81,50,0.00,40.00,10,4,20,0.01
2013-5-12,73.0,61.2,53.0,60.0,55.6,51.0,99,83,60,0.00,40.00,10,6,23,0.00
2013-5-13,74.0,61.1,51.0,58.0,55.0,50.0,99,82,54,0.00,40.00,11,6,22,0.00
2013-5-14,73.0,59.8,49.0,57.0,52.2,46.0,96,78,53,0.00,40.00,12,6,26,0.00
2013-5-15,72.0,59.7,47.0,57.0,52.3,45.0,98,79,53,0.00,40.00,11,6,24,0.00
2013-5-16,70.0,53.4,45.0,57.0,30.3,-99.9,99,78,44,0.00,40.00,11,5,24,0.00
2013-5-17,70.0,57.0,45.0,56.0,43.3,-99.9,98,77,43,0.00,40.00,12,6,25,0.00
2013-5-18,69.0,57.1,46.0,58.0,52.1,44.0,100,85,55,0.00,40.00,9,5,17,0.02
2013-5-19,65.0,58.2,53.0,57.0,53.8,49.0,100,87,59,0.00,40.00,7,5,19,0.01
2013-5-20,68.0,57.3,45.0,52.0,48.3,41.0,100,75,48,0.00,40.00,11,6,22,0.01
2013-5-21,70.0,58.7,44.0,57.0,49.7,38.0,93,74,48,0.00,40.00,11,6,24,0.01
2013-5-22,70.0,59.4,46.0,58.0,52.7,44.0,97,80,51,0.00,40.00,9,4,18,0.00
2013-5-23,74.0,60.4,48.0,55.0,50.7,46.0,98,74,47,0.00,40.00,10,5,23,0.00
2013-5-24,71.0,59.8,47.0,56.0,51.5,42.0,99,76,50,0.00,40.00,12,6,27,0.00
2013-5-25,73.0,58.8,48.0,60.0,54.0,34.0,100,87,24,0.00,40.00,15,6,27,0.06
2013-5-26,72.0,59.4,50.0,60.0,54.5,49.0,100,85,65,0.00,40.00,11,6,29,0.01
2013-5-27,69.0,58.3,49.0,57.0,51.8,46.0,97,81,51,0.00,40.00,11,6,23,0.34
2013-5-28,69.0,58.1,47.0,59.0,54.2,46.0,100,88,59,0.00,40.00,9,4,18,1.53
2013-5-29,71.0,59.2,49.0,60.0,55.4,49.0,100,89,57,0.00,40.00,8,4,17,0.04
2013-5-30,72.0,62.4,48.0,60.0,54.6,43.0,100,79,35,0.00,40.00,8,5,18,0.01
2013-5-31,73.0,61.5,45.0,61.0,53.3,42.0,100,78,36,0.00,40.00,10,5,19,0.00
2013-6-1,76.0,62.5,50.0,59.0,52.4,28.0,100,76,21,0.00,40.00,13,6,33,0.00
2013-6-2,82.0,67.7,50.0,54.0,37.7,19.0,100,44,16,0.00,40.00,23,13,40,0.01
2013-6-3,70.0,62.4,51.0,58.0,49.5,14.0,100,70,14,0.00,40.00,17,7,29,0.01
2013-6-4,79.0,62.5,51.0,56.0,45.5,24.0,100,66,14,0.00,40.00,23,10,47,0.00
2013-6-5,69.0,59.8,49.0,56.0,53.3,49.0,100,81,56,0.00,40.00,12,6,24,0.00
2013-6-6,69.0,59.3,46.0,57.0,53.1,45.0,100,82,50,0.00,40.00,11,6,22,0.00
2013-6-7,70.0,59.0,46.0,57.0,50.8,42.0,100,77,38,0.00,40.00,12,6,25,0.00
2013-6-8,71.0,59.0,46.0,57.0,52.4,45.0,100,81,45,0.00,40.00,10,5,24,0.00
2013-6-9,72.0,60.4,50.0,57.0,53.4,45.0,100,80,53,0.00,40.00,10,5,20,0.00
2013-6-10,73.0,62.3,48.0,57.0,50.3,40.0,91,67,37,0.00,40.00,8,5,19,0.00
2013-6-11,76.0,63.1,50.0,58.0,48.8,32.0,95,63,20,0.00,40.00,8,5,19,0.00
2013-6-12,73.0,60.1,41.0,60.0,49.7,32.0,98,72,29,0.00,40.00,14,6,27,0.00
2013-6-13,72.0,60.9,49.0,57.0,52.2,46.0,100,75,44,0.00,40.00,18,7,35,0.00
2013-6-14,70.0,58.5,46.0,57.0,50.9,45.0,97,78,49,0.00,40.00,10,6,23,0.00
2013-6-15,71.0,60.3,49.0,56.0,51.6,46.0,96,76,47,0.00,40.00,10,6,22,0.00
2013-6-16,70.0,60.6,49.0,59.0,53.9,48.0,99,81,49,0.00,40.00,10,5,23,0.00
2013-6-17,72.0,59.4,48.0,57.0,53.4,47.0,98,83,52,0.00,40.00,8,4,24,0.00
2013-6-18,70.0,60.0,49.0,60.0,54.8,48.0,100,85,60,0.00,40.00,10,5,21,0.00
2013-6-19,72.0,62.0,51.0,55.0,53.0,49.0,100,75,50,0.00,40.00,10,5,19,0.00